ADDS TAF Data INFO
IDs: Format: Raw Decoded Include METARs

Data at: 0048 UTC 20 Jul 2018

METAR for:KLBE (Latrobe/Palmer Rgnl, PA, US)
Text:KLBE 192350Z 15005KT 10SM SKC 26/14 A3005
Temperature: 26.0°C ( 79°F)
Dewpoint: 14.0°C ( 57°F) [RH = 48%]
Pressure (altimeter):30.05 inches Hg (1017.7 mb)
Winds:from the SSE (150 degrees) at 6 MPH (5 knots; 2.6 m/s)
Visibility:10 or more sm (16+ km)
Ceiling:at least 12,000 feet AGL
Clouds:clear skies

TAF for:KLBE (Latrobe/Palmer Rgnl, PA, US) issued at 2320 UTC 19 Jul 2018
Text:KLBE 192320Z 2000/2024 16005KT P6SM SCT250
Forecast period:0000 to 1600 UTC 20 July 2018
Forecast type:FROM: standard forecast or significant change
Winds:from the SSE (160 degrees) at 6 MPH (5 knots; 2.6 m/s)
Visibility:6 or more sm (10+ km)
Ceiling:at least 12,000 feet AGL
Clouds: scattered clouds at 25000 feet AGL
Text:FM201600 16006KT P6SM SCT050
Forecast period:1600 UTC 20 July 2018 to 0000 UTC 21 July 2018
Forecast type:FROM: standard forecast or significant change
Winds:from the SSE (160 degrees) at 7 MPH (6 knots; 3.1 m/s)
Visibility:6 or more sm (10+ km)
Ceiling:at least 12,000 feet AGL
Clouds: scattered clouds at 5000 feet AGL